Airfield :
LOGIN :

Register | Disclaimer

   EN    FR    IT 

 










Legend :    VFR   Marginal VFR   IFR   Intensive IFR   Very Intensive IFR
Visi :
Ceiling :
>= 8 km
>= 3000ft
5 to 8 km
1000 to 3000 ft
1500m to 5 km
500 to 1000 ft
800 to 1500m
200 to 500 ft
< 800m
< 200 ft
Symbols :   Thunderstorms  Fog  Heavy snow  Heavy precipitations  Wind > 20 kt
SIGMETs :     Misc.  Thunderstorms  Icing  Turbulence  Mountain Waves  Volcanic Ashes







- Airport Elevation : 46 ft
- IATA code : SNN


EINN - Shannon

CURRENT METAR :
  • 170100Z 19004KT 9999 FEW020 10/09 Q1014 NOSIG

EXPIRED METARs :
  • 170030Z 20007KT 9999 FEW017 SCT029 11/09 Q1014 NOSIG
  • 170000Z 19006KT 9999 SCT019 BKN028 10/09 Q1014 NOSIG
  • 162330Z 18006KT 9999 FEW018 BKN025 10/09 Q1014 NOSIG
  • 162300Z 17005KT 9999 FEW018 10/09 Q1013 NOSIG
  • 162230Z 18006KT 9999 FEW018 11/09 Q1013 NOSIG

TAF TAF EINN
Valid from the 17 at 00:00 until the 18 at 00:00 UTC


162300Z 1700/1724 19007KT 9999 FEW015 SCT035
BECMG 1701/1704 23006KT
TEMPO 1701/1706 4000 BR SCT010
PROB30
TEMPO 1702/1706 2500 -SHRA BKN010
BECMG 1704/1706 32006KT
BECMG 1708/1711 32011KT
BECMG 1717/1719 34006KT
No reported NOTAMs for that airfield.



MET'MAP, your aeronautical weather chart ! - Copyright ORBIFLY December 2007 - Disclaimer

ORBIFLY MET'MAP TEAM :

Programming & Development : Alexandra Zaïnal
Concept & Development : Baudouin d'Aumeries
Co-Development & Prog : Marc-Olivier Méhu
Technical & hardware support : Manuel Goepfert

Contact : metmap@orbifly.com




SOURCES & CREDITS :

   NOAA